sensor_id;sensor_type;location;lat;lon;timestamp;temperature;humidity
6018;DHT22;3037;51.068;13.780;2023-02-01T00:01:43;5.20;99.90
6018;DHT22;3037;51.068;13.780;2023-02-01T00:04:08;5.20;99.90
6018;DHT22;3037;51.068;13.780;2023-02-01T00:06:34;5.10;99.90
6018;DHT22;3037;51.068;13.780;2023-02-01T00:09:00;5.00;99.90
6018;DHT22;3037;51.068;13.780;2023-02-01T00:11:25;5.00;99.90
6018;DHT22;3037;51.068;13.780;2023-02-01T00:13:51;4.90;99.90
6018;DHT22;3037;51.068;13.780;2023-02-01T00:16:22;4.90;99.90
6018;DHT22;3037;51.068;13.780;2023-02-01T00:18:50;5.00;99.90
6018;DHT22;3037;51.068;13.780;2023-02-01T00:21:18;5.20;99.90
6018;DHT22;3037;51.068;13.780;2023-02-01T00:23:44;5.20;99.90
6018;DHT22;3037;51.068;13.780;2023-02-01T00:26:15;5.20;99.90
6018;DHT22;3037;51.068;13.780;2023-02-01T00:28:41;5.30;99.90
6018;DHT22;3037;51.068;13.780;2023-02-01T00:31:06;5.40;99.90
6018;DHT22;3037;51.068;13.780;2023-02-01T00:33:32;5.40;99.90
6018;DHT22;3037;51.068;13.780;2023-02-01T00:35:59;5.50;99.90
6018;DHT22;3037;51.068;13.780;2023-02-01T00:38:25;5.60;99.90
6018;DHT22;3037;51.068;13.780;2023-02-01T00:40:51;5.60;99.90
6018;DHT22;3037;51.068;13.780;2023-02-01T00:43:16;5.60;99.90
6018;DHT22;3037;51.068;13.780;2023-02-01T00:45:42;5.60;99.90
6018;DHT22;3037;51.068;13.780;2023-02-01T00:48:07;5.60;99.90
6018;DHT22;3037;51.068;13.780;2023-02-01T00:50:33;5.70;99.90
6018;DHT22;3037;51.068;13.780;2023-02-01T00:52:58;5.80;99.90
6018;DHT22;3037;51.068;13.780;2023-02-01T00:55:25;5.80;99.90
6018;DHT22;3037;51.068;13.780;2023-02-01T00:57:50;5.70;99.90
6018;DHT22;3037;51.068;13.780;2023-02-01T01:00:16;5.70;99.90
6018;DHT22;3037;51.068;13.780;2023-02-01T01:02:42;5.60;99.90
6018;DHT22;3037;51.068;13.780;2023-02-01T01:05:07;5.70;99.90
6018;DHT22;3037;51.068;13.780;2023-02-01T01:07:33;5.70;99.90
6018;DHT22;3037;51.068;13.780;2023-02-01T01:09:58;5.70;99.90
6018;DHT22;3037;51.068;13.780;2023-02-01T01:12:24;5.70;99.90
6018;DHT22;3037;51.068;13.780;2023-02-01T01:14:49;5.60;99.90
6018;DHT22;3037;51.068;13.780;2023-02-01T01:17:15;5.60;99.90
6018;DHT22;3037;51.068;13.780;2023-02-01T01:19:40;5.60;99.90
6018;DHT22;3037;51.068;13.780;2023-02-01T01:22:06;5.50;99.90
6018;DHT22;3037;51.068;13.780;2023-02-01T01:24:31;5.40;99.90
6018;DHT22;3037;51.068;13.780;2023-02-01T01:26:57;5.40;99.90
6018;DHT22;3037;51.068;13.780;2023-02-01T01:29:22;5.50;99.90
6018;DHT22;3037;51.068;13.780;2023-02-01T01:31:48;5.50;99.90
6018;DHT22;3037;51.068;13.780;2023-02-01T01:34:13;5.60;99.90
6018;DHT22;3037;51.068;13.780;2023-02-01T01:36:39;5.60;99.90
6018;DHT22;3037;51.068;13.780;2023-02-01T01:39:04;5.60;99.90
6018;DHT22;3037;51.068;13.780;2023-02-01T01:41:31;5.60;99.90
6018;DHT22;3037;51.068;13.780;2023-02-01T01:44:03;5.70;99.90
6018;DHT22;3037;51.068;13.780;2023-02-01T01:46:37;5.70;99.90
6018;DHT22;3037;51.068;13.780;2023-02-01T01:49:08;5.70;99.90
6018;DHT22;3037;51.068;13.780;2023-02-01T01:51:38;5.70;99.90
6018;DHT22;3037;51.068;13.780;2023-02-01T01:54:28;5.60;99.90
6018;DHT22;3037;51.068;13.780;2023-02-01T01:56:58;5.70;99.90
6018;DHT22;3037;51.068;13.780;2023-02-01T01:59:26;5.80;99.90
6018;DHT22;3037;51.068;13.780;2023-02-01T02:01:52;5.80;99.90
6018;DHT22;3037;51.068;13.780;2023-02-01T02:04:18;5.80;99.90
6018;DHT22;3037;51.068;13.780;2023-02-01T02:07:02;5.70;99.90
6018;DHT22;3037;51.068;13.780;2023-02-01T02:09:28;5.70;99.90
6018;DHT22;3037;51.068;13.780;2023-02-01T02:11:54;5.70;99.90
6018;DHT22;3037;51.068;13.780;2023-02-01T02:14:21;5.70;99.90
6018;DHT22;3037;51.068;13.780;2023-02-01T02:28:35;5.80;99.90
6018;DHT22;3037;51.068;13.780;2023-02-01T02:34:14;5.70;99.90
6018;DHT22;3037;51.068;13.780;2023-02-01T02:37:35;5.80;99.90
6018;DHT22;3037;51.068;13.780;2023-02-01T02:39:52;5.70;99.90
6018;DHT22;3037;51.068;13.780;2023-02-01T02:42:27;5.70;99.90
6018;DHT22;3037;51.068;13.780;2023-02-01T02:48:55;5.50;99.90
6018;DHT22;3037;51.068;13.780;2023-02-01T02:51:32;5.50;99.90
6018;DHT22;3037;51.068;13.780;2023-02-01T02:54:24;5.40;99.90
6018;DHT22;3037;51.068;13.780;2023-02-01T02:57:29;5.40;99.90
6018;DHT22;3037;51.068;13.780;2023-02-01T03:00:20;5.40;99.90
6018;DHT22;3037;51.068;13.780;2023-02-01T03:03:06;5.40;99.90
6018;DHT22;3037;51.068;13.780;2023-02-01T03:05:51;5.30;99.90
6018;DHT22;3037;51.068;13.780;2023-02-01T03:08:24;5.30;99.90
6018;DHT22;3037;51.068;13.780;2023-02-01T03:11:12;5.40;99.90
6018;DHT22;3037;51.068;13.780;2023-02-01T03:13:52;5.40;99.90
6018;DHT22;3037;51.068;13.780;2023-02-01T03:16:51;5.40;99.90
6018;DHT22;3037;51.068;13.780;2023-02-01T03:19:32;5.40;99.90
6018;DHT22;3037;51.068;13.780;2023-02-01T03:22:08;5.30;99.90
6018;DHT22;3037;51.068;13.780;2023-02-01T03:24:41;5.40;99.90
6018;DHT22;3037;51.068;13.780;2023-02-01T03:27:17;5.40;99.90
6018;DHT22;3037;51.068;13.780;2023-02-01T03:32:36;5.40;99.90
6018;DHT22;3037;51.068;13.780;2023-02-01T03:38:43;5.50;99.90
6018;DHT22;3037;51.068;13.780;2023-02-01T03:46:37;5.50;99.90
6018;DHT22;3037;51.068;13.780;2023-02-01T03:49:08;5.50;99.90
6018;DHT22;3037;51.068;13.780;2023-02-01T03:51:36;5.60;99.90
6018;DHT22;3037;51.068;13.780;2023-02-01T03:54:04;5.60;99.90
6018;DHT22;3037;51.068;13.780;2023-02-01T03:56:32;5.60;99.90
6018;DHT22;3037;51.068;13.780;2023-02-01T03:59:01;5.60;99.90
6018;DHT22;3037;51.068;13.780;2023-02-01T04:01:29;5.60;99.90
6018;DHT22;3037;51.068;13.780;2023-02-01T04:03:55;5.60;99.90
6018;DHT22;3037;51.068;13.780;2023-02-01T04:06:21;5.50;99.90
6018;DHT22;3037;51.068;13.780;2023-02-01T04:08:46;5.50;99.90
6018;DHT22;3037;51.068;13.780;2023-02-01T04:11:12;5.60;99.90
6018;DHT22;3037;51.068;13.780;2023-02-01T04:13:38;5.60;99.90
6018;DHT22;3037;51.068;13.780;2023-02-01T04:16:03;5.60;99.90
6018;DHT22;3037;51.068;13.780;2023-02-01T04:18:29;5.60;99.90
6018;DHT22;3037;51.068;13.780;2023-02-01T04:20:55;5.70;99.90
6018;DHT22;3037;51.068;13.780;2023-02-01T04:23:21;5.60;99.90
6018;DHT22;3037;51.068;13.780;2023-02-01T04:25:46;5.50;99.90
6018;DHT22;3037;51.068;13.780;2023-02-01T04:28:12;5.50;99.90
6018;DHT22;3037;51.068;13.780;2023-02-01T04:30:38;5.60;99.90
6018;DHT22;3037;51.068;13.780;2023-02-01T04:33:03;5.60;99.80
6018;DHT22;3037;51.068;13.780;2023-02-01T04:35:31;5.70;99.40
6018;DHT22;3037;51.068;13.780;2023-02-01T04:37:57;5.50;99.90
6018;DHT22;3037;51.068;13.780;2023-02-01T04:40:22;5.50;99.90
6018;DHT22;3037;51.068;13.780;2023-02-01T04:42:48;5.60;99.80
6018;DHT22;3037;51.068;13.780;2023-02-01T04:45:14;5.60;99.30
6018;DHT22;3037;51.068;13.780;2023-02-01T04:47:39;5.60;99.60
6018;DHT22;3037;51.068;13.780;2023-02-01T04:50:05;5.60;98.80
6018;DHT22;3037;51.068;13.780;2023-02-01T04:52:32;5.60;98.50
6018;DHT22;3037;51.068;13.780;2023-02-01T04:54:58;5.50;99.20
6018;DHT22;3037;51.068;13.780;2023-02-01T04:57:25;5.60;98.70
6018;DHT22;3037;51.068;13.780;2023-02-01T04:59:51;5.50;99.40
6018;DHT22;3037;51.068;13.780;2023-02-01T05:02:16;5.50;99.10
6018;DHT22;3037;51.068;13.780;2023-02-01T05:04:42;5.50;99.30
6018;DHT22;3037;51.068;13.780;2023-02-01T05:07:07;5.50;99.10
6018;DHT22;3037;51.068;13.780;2023-02-01T05:09:33;5.50;98.60
6018;DHT22;3037;51.068;13.780;2023-02-01T05:11:58;5.60;98.10
6018;DHT22;3037;51.068;13.780;2023-02-01T05:14:42;5.50;98.30
6018;DHT22;3037;51.068;13.780;2023-02-01T05:17:08;5.50;98.60
6018;DHT22;3037;51.068;13.780;2023-02-01T05:19:33;5.40;98.20
6018;DHT22;3037;51.068;13.780;2023-02-01T05:21:59;5.40;98.20
6018;DHT22;3037;51.068;13.780;2023-02-01T05:24:24;5.40;98.40
6018;DHT22;3037;51.068;13.780;2023-02-01T05:26:52;5.50;98.50
6018;DHT22;3037;51.068;13.780;2023-02-01T05:29:17;5.40;98.10
6018;DHT22;3037;51.068;13.780;2023-02-01T05:31:47;5.50;97.70
6018;DHT22;3037;51.068;13.780;2023-02-01T05:34:12;5.60;97.20
6018;DHT22;3037;51.068;13.780;2023-02-01T05:36:38;5.50;96.60
6018;DHT22;3037;51.068;13.780;2023-02-01T05:39:04;5.50;96.80
6018;DHT22;3037;51.068;13.780;2023-02-01T05:41:29;5.50;96.60
6018;DHT22;3037;51.068;13.780;2023-02-01T05:43:55;5.50;96.40
6018;DHT22;3037;51.068;13.780;2023-02-01T05:46:21;5.50;96.40
6018;DHT22;3037;51.068;13.780;2023-02-01T05:48:46;5.60;96.10
6018;DHT22;3037;51.068;13.780;2023-02-01T05:51:12;5.60;96.10
6018;DHT22;3037;51.068;13.780;2023-02-01T05:53:38;5.60;96.00
6018;DHT22;3037;51.068;13.780;2023-02-01T05:56:04;5.60;96.00
6018;DHT22;3037;51.068;13.780;2023-02-01T05:58:30;5.70;95.90
6018;DHT22;3037;51.068;13.780;2023-02-01T06:00:56;5.70;96.10
6018;DHT22;3037;51.068;13.780;2023-02-01T06:03:23;5.60;96.90
6018;DHT22;3037;51.068;13.780;2023-02-01T06:05:49;5.70;97.30
6018;DHT22;3037;51.068;13.780;2023-02-01T06:08:15;5.70;97.90
6018;DHT22;3037;51.068;13.780;2023-02-01T06:10:40;5.70;98.50
6018;DHT22;3037;51.068;13.780;2023-02-01T06:13:06;5.70;98.70
6018;DHT22;3037;51.068;13.780;2023-02-01T06:15:32;5.70;98.30
6018;DHT22;3037;51.068;13.780;2023-02-01T06:17:58;5.70;98.30
6018;DHT22;3037;51.068;13.780;2023-02-01T06:20:24;5.70;98.20
6018;DHT22;3037;51.068;13.780;2023-02-01T06:22:49;5.70;97.40
6018;DHT22;3037;51.068;13.780;2023-02-01T06:25:15;5.70;97.70
6018;DHT22;3037;51.068;13.780;2023-02-01T06:27:42;5.70;97.70
6018;DHT22;3037;51.068;13.780;2023-02-01T06:30:10;5.70;97.30
6018;DHT22;3037;51.068;13.780;2023-02-01T06:32:39;5.70;97.20
6018;DHT22;3037;51.068;13.780;2023-02-01T06:35:09;5.80;97.50
6018;DHT22;3037;51.068;13.780;2023-02-01T06:37:39;5.70;96.50
6018;DHT22;3037;51.068;13.780;2023-02-01T06:40:05;5.70;97.10
6018;DHT22;3037;51.068;13.780;2023-02-01T06:42:30;5.80;96.90
6018;DHT22;3037;51.068;13.780;2023-02-01T06:44:56;5.80;96.00
6018;DHT22;3037;51.068;13.780;2023-02-01T06:47:21;5.80;96.50
6018;DHT22;3037;51.068;13.780;2023-02-01T06:49:47;5.80;96.70
6018;DHT22;3037;51.068;13.780;2023-02-01T06:52:12;5.80;96.90
6018;DHT22;3037;51.068;13.780;2023-02-01T06:54:38;5.80;97.40
6018;DHT22;3037;51.068;13.780;2023-02-01T06:57:04;5.80;98.00
6018;DHT22;3037;51.068;13.780;2023-02-01T06:59:29;5.80;98.60
6018;DHT22;3037;51.068;13.780;2023-02-01T07:01:55;5.80;98.10
6018;DHT22;3037;51.068;13.780;2023-02-01T07:04:20;5.70;99.50
6018;DHT22;3037;51.068;13.780;2023-02-01T07:06:46;5.80;98.70
6018;DHT22;3037;51.068;13.780;2023-02-01T07:09:11;5.70;99.70
6018;DHT22;3037;51.068;13.780;2023-02-01T07:11:38;5.70;99.90
6018;DHT22;3037;51.068;13.780;2023-02-01T07:14:08;5.60;99.90
6018;DHT22;3037;51.068;13.780;2023-02-01T07:16:34;5.60;99.90
6018;DHT22;3037;51.068;13.780;2023-02-01T07:19:00;5.60;99.90
6018;DHT22;3037;51.068;13.780;2023-02-01T07:21:25;5.70;99.90
6018;DHT22;3037;51.068;13.780;2023-02-01T07:23:53;5.60;99.90
6018;DHT22;3037;51.068;13.780;2023-02-01T07:26:19;5.60;99.90
6018;DHT22;3037;51.068;13.780;2023-02-01T07:28:44;5.50;99.90
6018;DHT22;3037;51.068;13.780;2023-02-01T07:31:15;5.40;99.90
6018;DHT22;3037;51.068;13.780;2023-02-01T07:33:43;5.40;99.90
6018;DHT22;3037;51.068;13.780;2023-02-01T07:36:12;5.20;99.90
6018;DHT22;3037;51.068;13.780;2023-02-01T07:38:38;5.20;99.90
6018;DHT22;3037;51.068;13.780;2023-02-01T07:41:04;5.10;99.90
6018;DHT22;3037;51.068;13.780;2023-02-01T07:43:31;5.10;99.90
6018;DHT22;3037;51.068;13.780;2023-02-01T07:45:58;5.10;99.90
6018;DHT22;3037;51.068;13.780;2023-02-01T07:48:25;5.10;99.90
6018;DHT22;3037;51.068;13.780;2023-02-01T07:51:05;5.20;99.90
6018;DHT22;3037;51.068;13.780;2023-02-01T07:53:33;5.30;99.90
6018;DHT22;3037;51.068;13.780;2023-02-01T07:55:59;5.30;99.90
6018;DHT22;3037;51.068;13.780;2023-02-01T07:58:25;5.20;99.90
6018;DHT22;3037;51.068;13.780;2023-02-01T08:00:52;5.20;99.90
6018;DHT22;3037;51.068;13.780;2023-02-01T08:03:36;5.20;99.90
6018;DHT22;3037;51.068;13.780;2023-02-01T08:06:01;5.30;99.90
6018;DHT22;3037;51.068;13.780;2023-02-01T08:08:27;5.40;99.90
6018;DHT22;3037;51.068;13.780;2023-02-01T08:10:58;5.40;99.90
6018;DHT22;3037;51.068;13.780;2023-02-01T08:13:23;5.60;99.90
6018;DHT22;3037;51.068;13.780;2023-02-01T08:15:49;5.50;99.90
6018;DHT22;3037;51.068;13.780;2023-02-01T08:18:15;5.40;99.90
6018;DHT22;3037;51.068;13.780;2023-02-01T08:20:43;5.30;99.90
6018;DHT22;3037;51.068;13.780;2023-02-01T08:23:11;5.40;99.90
6018;DHT22;3037;51.068;13.780;2023-02-01T08:25:36;5.60;99.90
6018;DHT22;3037;51.068;13.780;2023-02-01T08:28:03;5.40;99.90
6018;DHT22;3037;51.068;13.780;2023-02-01T08:30:28;5.50;99.90
6018;DHT22;3037;51.068;13.780;2023-02-01T08:32:54;5.40;99.90
6018;DHT22;3037;51.068;13.780;2023-02-01T08:35:19;5.50;99.90
6018;DHT22;3037;51.068;13.780;2023-02-01T08:37:45;5.30;99.90
6018;DHT22;3037;51.068;13.780;2023-02-01T08:40:11;5.30;99.90
6018;DHT22;3037;51.068;13.780;2023-02-01T08:42:36;5.40;99.90
6018;DHT22;3037;51.068;13.780;2023-02-01T08:45:23;5.40;99.90
6018;DHT22;3037;51.068;13.780;2023-02-01T08:47:52;5.40;99.90
6018;DHT22;3037;51.068;13.780;2023-02-01T08:50:19;5.60;99.90
6018;DHT22;3037;51.068;13.780;2023-02-01T08:52:45;5.70;99.90
6018;DHT22;3037;51.068;13.780;2023-02-01T08:55:12;5.70;99.90
6018;DHT22;3037;51.068;13.780;2023-02-01T08:57:38;5.70;99.90
6018;DHT22;3037;51.068;13.780;2023-02-01T09:00:06;6.00;99.90
6018;DHT22;3037;51.068;13.780;2023-02-01T09:02:31;6.10;99.90
6018;DHT22;3037;51.068;13.780;2023-02-01T09:04:57;6.30;99.80
6018;DHT22;3037;51.068;13.780;2023-02-01T09:07:23;6.40;99.20
6018;DHT22;3037;51.068;13.780;2023-02-01T09:09:48;6.40;97.40
6018;DHT22;3037;51.068;13.780;2023-02-01T09:12:14;6.40;97.40
6018;DHT22;3037;51.068;13.780;2023-02-01T09:14:39;6.40;97.30
6018;DHT22;3037;51.068;13.780;2023-02-01T09:17:05;6.40;97.50
6018;DHT22;3037;51.068;13.780;2023-02-01T09:19:31;6.50;96.90
6018;DHT22;3037;51.068;13.780;2023-02-01T09:21:57;6.50;96.60
6018;DHT22;3037;51.068;13.780;2023-02-01T09:24:23;6.60;97.00
6018;DHT22;3037;51.068;13.780;2023-02-01T09:26:49;6.60;96.70
6018;DHT22;3037;51.068;13.780;2023-02-01T09:29:15;6.60;97.30
6018;DHT22;3037;51.068;13.780;2023-02-01T09:31:41;6.50;98.10
6018;DHT22;3037;51.068;13.780;2023-02-01T09:34:06;6.40;98.30
6018;DHT22;3037;51.068;13.780;2023-02-01T09:36:33;6.30;99.90
6018;DHT22;3037;51.068;13.780;2023-02-01T09:38:59;6.20;99.90
6018;DHT22;3037;51.068;13.780;2023-02-01T09:41:32;6.20;99.90
6018;DHT22;3037;51.068;13.780;2023-02-01T09:46:41;6.40;99.90
6018;DHT22;3037;51.068;13.780;2023-02-01T09:49:14;6.30;99.90
6018;DHT22;3037;51.068;13.780;2023-02-01T09:51:44;6.30;99.90
6018;DHT22;3037;51.068;13.780;2023-02-01T09:54:14;6.10;99.90
6018;DHT22;3037;51.068;13.780;2023-02-01T09:56:47;5.60;99.90
6018;DHT22;3037;51.068;13.780;2023-02-01T10:02:08;5.20;99.90
6018;DHT22;3037;51.068;13.780;2023-02-01T10:04:36;5.00;99.90
6018;DHT22;3037;51.068;13.780;2023-02-01T10:07:23;5.00;99.90
6018;DHT22;3037;51.068;13.780;2023-02-01T10:15:40;4.80;99.90
6018;DHT22;3037;51.068;13.780;2023-02-01T10:21:36;4.80;99.90
6018;DHT22;3037;51.068;13.780;2023-02-01T10:27:17;4.80;99.90
6018;DHT22;3037;51.068;13.780;2023-02-01T10:29:46;4.80;99.90
6018;DHT22;3037;51.068;13.780;2023-02-01T10:32:15;4.70;99.90
6018;DHT22;3037;51.068;13.780;2023-02-01T10:34:42;4.70;99.90
6018;DHT22;3037;51.068;13.780;2023-02-01T10:37:28;4.60;99.90
6018;DHT22;3037;51.068;13.780;2023-02-01T10:39:56;4.70;99.90
6018;DHT22;3037;51.068;13.780;2023-02-01T10:42:26;4.90;99.90
6018;DHT22;3037;51.068;13.780;2023-02-01T10:44:53;5.00;99.90
6018;DHT22;3037;51.068;13.780;2023-02-01T10:47:19;5.10;99.90
6018;DHT22;3037;51.068;13.780;2023-02-01T10:49:52;5.10;99.90
6018;DHT22;3037;51.068;13.780;2023-02-01T10:54:52;5.40;99.90
6018;DHT22;3037;51.068;13.780;2023-02-01T10:57:23;5.40;99.90
6018;DHT22;3037;51.068;13.780;2023-02-01T10:59:51;5.70;99.90
6018;DHT22;3037;51.068;13.780;2023-02-01T11:02:23;5.80;99.90
6018;DHT22;3037;51.068;13.780;2023-02-01T11:05:02;5.90;99.90
6018;DHT22;3037;51.068;13.780;2023-02-01T11:07:29;5.90;99.90
6018;DHT22;3037;51.068;13.780;2023-02-01T11:09:55;5.90;99.90
6018;DHT22;3037;51.068;13.780;2023-02-01T11:12:33;5.90;99.90
6018;DHT22;3037;51.068;13.780;2023-02-01T11:15:12;6.00;99.90
6018;DHT22;3037;51.068;13.780;2023-02-01T11:17:43;6.00;99.90
6018;DHT22;3037;51.068;13.780;2023-02-01T11:20:17;6.20;99.90
6018;DHT22;3037;51.068;13.780;2023-02-01T11:22:54;6.20;99.90
6018;DHT22;3037;51.068;13.780;2023-02-01T11:25:21;6.30;99.90
6018;DHT22;3037;51.068;13.780;2023-02-01T11:27:49;6.30;99.90
6018;DHT22;3037;51.068;13.780;2023-02-01T11:30:44;6.40;99.90
6018;DHT22;3037;51.068;13.780;2023-02-01T11:33:17;6.50;99.90
6018;DHT22;3037;51.068;13.780;2023-02-01T11:35:44;6.40;99.90
6018;DHT22;3037;51.068;13.780;2023-02-01T11:38:26;6.40;99.90
6018;DHT22;3037;51.068;13.780;2023-02-01T11:40:52;6.40;99.90
6018;DHT22;3037;51.068;13.780;2023-02-01T11:43:26;6.30;99.90
6018;DHT22;3037;51.068;13.780;2023-02-01T11:46:01;6.30;99.90
6018;DHT22;3037;51.068;13.780;2023-02-01T11:48:29;7.00;99.90
6018;DHT22;3037;51.068;13.780;2023-02-01T11:53:54;6.80;99.90
6018;DHT22;3037;51.068;13.780;2023-02-01T11:56:36;6.70;99.90
6018;DHT22;3037;51.068;13.780;2023-02-01T12:07:48;6.10;99.90
6018;DHT22;3037;51.068;13.780;2023-02-01T12:10:22;6.40;99.90
6018;DHT22;3037;51.068;13.780;2023-02-01T12:21:28;6.60;99.90
6018;DHT22;3037;51.068;13.780;2023-02-01T12:24:11;6.70;99.90
6018;DHT22;3037;51.068;13.780;2023-02-01T12:33:02;6.60;99.90
6018;DHT22;3037;51.068;13.780;2023-02-01T12:39:26;6.60;99.90
6018;DHT22;3037;51.068;13.780;2023-02-01T12:47:22;6.50;99.90
6018;DHT22;3037;51.068;13.780;2023-02-01T12:52:44;6.60;99.90
6018;DHT22;3037;51.068;13.780;2023-02-01T12:57:52;6.70;99.90
6018;DHT22;3037;51.068;13.780;2023-02-01T13:00:40;6.70;99.90
6018;DHT22;3037;51.068;13.780;2023-02-01T13:03:40;6.80;99.90
6018;DHT22;3037;51.068;13.780;2023-02-01T13:06:13;6.90;99.90
6018;DHT22;3037;51.068;13.780;2023-02-01T13:08:46;7.00;99.90
6018;DHT22;3037;51.068;13.780;2023-02-01T13:16:41;6.90;99.90
6018;DHT22;3037;51.068;13.780;2023-02-01T13:22:19;7.00;99.90
6018;DHT22;3037;51.068;13.780;2023-02-01T13:25:04;7.00;99.90
6018;DHT22;3037;51.068;13.780;2023-02-01T13:27:36;7.10;99.90
6018;DHT22;3037;51.068;13.780;2023-02-01T13:30:25;7.20;99.90
6018;DHT22;3037;51.068;13.780;2023-02-01T13:33:17;7.10;99.90
6018;DHT22;3037;51.068;13.780;2023-02-01T13:41:51;7.20;99.90
6018;DHT22;3037;51.068;13.780;2023-02-01T13:46:56;7.20;98.90
6018;DHT22;3037;51.068;13.780;2023-02-01T13:49:26;7.10;98.80
6018;DHT22;3037;51.068;13.780;2023-02-01T13:51:55;7.10;98.20
6018;DHT22;3037;51.068;13.780;2023-02-01T13:54:42;7.20;96.50
6018;DHT22;3037;51.068;13.780;2023-02-01T14:10:48;7.20;96.20
6018;DHT22;3037;51.068;13.780;2023-02-01T14:21:30;7.10;92.60
6018;DHT22;3037;51.068;13.780;2023-02-01T14:27:15;7.30;92.00
6018;DHT22;3037;51.068;13.780;2023-02-01T14:29:53;7.10;90.50
6018;DHT22;3037;51.068;13.780;2023-02-01T14:32:35;7.10;91.10
6018;DHT22;3037;51.068;13.780;2023-02-01T14:35:05;7.10;87.80
6018;DHT22;3037;51.068;13.780;2023-02-01T14:37:34;7.20;86.10
6018;DHT22;3037;51.068;13.780;2023-02-01T14:40:01;7.20;84.70
6018;DHT22;3037;51.068;13.780;2023-02-01T14:47:54;7.10;84.60
6018;DHT22;3037;51.068;13.780;2023-02-01T14:53:28;6.90;86.60
6018;DHT22;3037;51.068;13.780;2023-02-01T15:04:17;7.10;89.00
6018;DHT22;3037;51.068;13.780;2023-02-01T15:06:53;6.70;89.80
6018;DHT22;3037;51.068;13.780;2023-02-01T15:09:31;6.80;87.80
6018;DHT22;3037;51.068;13.780;2023-02-01T15:14:48;6.80;87.10
6018;DHT22;3037;51.068;13.780;2023-02-01T15:17:25;6.70;88.70
6018;DHT22;3037;51.068;13.780;2023-02-01T15:20:00;6.90;87.40
6018;DHT22;3037;51.068;13.780;2023-02-01T15:22:29;6.90;88.50
6018;DHT22;3037;51.068;13.780;2023-02-01T15:24:59;6.80;91.40
6018;DHT22;3037;51.068;13.780;2023-02-01T15:27:27;6.80;93.70
6018;DHT22;3037;51.068;13.780;2023-02-01T15:29:53;6.80;94.20
6018;DHT22;3037;51.068;13.780;2023-02-01T15:32:33;6.80;95.30
6018;DHT22;3037;51.068;13.780;2023-02-01T15:35:00;6.70;95.10
6018;DHT22;3037;51.068;13.780;2023-02-01T15:37:26;6.70;97.20
6018;DHT22;3037;51.068;13.780;2023-02-01T15:42:49;6.60;95.80
6018;DHT22;3037;51.068;13.780;2023-02-01T15:45:20;6.40;95.90
6018;DHT22;3037;51.068;13.780;2023-02-01T15:47:52;6.40;95.80
6018;DHT22;3037;51.068;13.780;2023-02-01T15:50:19;6.50;95.30
6018;DHT22;3037;51.068;13.780;2023-02-01T15:52:49;6.40;94.80
6018;DHT22;3037;51.068;13.780;2023-02-01T15:55:40;6.40;95.00
6018;DHT22;3037;51.068;13.780;2023-02-01T15:58:08;6.40;93.70
6018;DHT22;3037;51.068;13.780;2023-02-01T16:00:43;6.40;92.40
6018;DHT22;3037;51.068;13.780;2023-02-01T16:03:38;6.50;92.20
6018;DHT22;3037;51.068;13.780;2023-02-01T16:06:25;6.60;91.20
6018;DHT22;3037;51.068;13.780;2023-02-01T16:08:54;6.50;91.70
6018;DHT22;3037;51.068;13.780;2023-02-01T16:11:26;6.50;92.10
6018;DHT22;3037;51.068;13.780;2023-02-01T16:13:53;6.40;93.10
6018;DHT22;3037;51.068;13.780;2023-02-01T16:16:19;6.30;95.60
6018;DHT22;3037;51.068;13.780;2023-02-01T16:18:45;5.60;97.30
6018;DHT22;3037;51.068;13.780;2023-02-01T16:21:11;6.20;99.90
6018;DHT22;3037;51.068;13.780;2023-02-01T16:23:37;6.10;99.90
6018;DHT22;3037;51.068;13.780;2023-02-01T16:26:03;6.10;99.90
6018;DHT22;3037;51.068;13.780;2023-02-01T16:28:29;6.00;99.90
6018;DHT22;3037;51.068;13.780;2023-02-01T16:30:55;5.90;99.90
6018;DHT22;3037;51.068;13.780;2023-02-01T16:33:21;5.80;99.90
6018;DHT22;3037;51.068;13.780;2023-02-01T16:35:50;5.80;99.90
6018;DHT22;3037;51.068;13.780;2023-02-01T16:38:18;5.70;99.90
6018;DHT22;3037;51.068;13.780;2023-02-01T16:40:47;5.80;99.90
6018;DHT22;3037;51.068;13.780;2023-02-01T16:43:14;5.60;99.90
6018;DHT22;3037;51.068;13.780;2023-02-01T16:45:41;5.50;99.90
6018;DHT22;3037;51.068;13.780;2023-02-01T16:48:27;5.40;99.90
6018;DHT22;3037;51.068;13.780;2023-02-01T16:50:56;5.40;99.90
6018;DHT22;3037;51.068;13.780;2023-02-01T16:53:24;5.30;99.90
6018;DHT22;3037;51.068;13.780;2023-02-01T16:55:50;5.30;99.90
6018;DHT22;3037;51.068;13.780;2023-02-01T16:58:18;5.30;99.90
6018;DHT22;3037;51.068;13.780;2023-02-01T17:00:44;5.20;99.90
6018;DHT22;3037;51.068;13.780;2023-02-01T17:03:13;5.20;99.90
6018;DHT22;3037;51.068;13.780;2023-02-01T17:05:43;5.30;99.90
6018;DHT22;3037;51.068;13.780;2023-02-01T17:08:13;5.10;99.90
6018;DHT22;3037;51.068;13.780;2023-02-01T17:10:41;5.20;99.90
6018;DHT22;3037;51.068;13.780;2023-02-01T17:13:11;4.30;99.90
6018;DHT22;3037;51.068;13.780;2023-02-01T17:15:38;3.90;99.90
6018;DHT22;3037;51.068;13.780;2023-02-01T17:18:03;3.80;99.90
6018;DHT22;3037;51.068;13.780;2023-02-01T17:20:31;3.70;99.90
6018;DHT22;3037;51.068;13.780;2023-02-01T17:22:57;3.50;99.90
6018;DHT22;3037;51.068;13.780;2023-02-01T17:25:23;3.60;99.90
6018;DHT22;3037;51.068;13.780;2023-02-01T17:27:50;3.50;99.90
6018;DHT22;3037;51.068;13.780;2023-02-01T17:30:16;3.50;99.90
6018;DHT22;3037;51.068;13.780;2023-02-01T17:32:42;3.50;99.90
6018;DHT22;3037;51.068;13.780;2023-02-01T17:37:43;3.50;99.90
6018;DHT22;3037;51.068;13.780;2023-02-01T17:40:09;3.40;99.90
6018;DHT22;3037;51.068;13.780;2023-02-01T17:42:35;3.50;99.90
6018;DHT22;3037;51.068;13.780;2023-02-01T17:45:32;3.40;99.90
6018;DHT22;3037;51.068;13.780;2023-02-01T17:47:58;3.40;99.90
6018;DHT22;3037;51.068;13.780;2023-02-01T17:50:26;3.50;99.90
6018;DHT22;3037;51.068;13.780;2023-02-01T17:52:52;3.50;99.90
6018;DHT22;3037;51.068;13.780;2023-02-01T17:55:19;3.50;99.90
6018;DHT22;3037;51.068;13.780;2023-02-01T17:57:47;3.50;99.90
6018;DHT22;3037;51.068;13.780;2023-02-01T18:00:14;3.50;99.90
6018;DHT22;3037;51.068;13.780;2023-02-01T18:02:41;3.60;99.90
6018;DHT22;3037;51.068;13.780;2023-02-01T18:05:20;3.60;99.90
6018;DHT22;3037;51.068;13.780;2023-02-01T18:07:46;3.60;99.90
6018;DHT22;3037;51.068;13.780;2023-02-01T18:10:11;3.60;99.90
6018;DHT22;3037;51.068;13.780;2023-02-01T18:12:37;3.80;99.90
6018;DHT22;3037;51.068;13.780;2023-02-01T18:15:21;3.80;99.90
6018;DHT22;3037;51.068;13.780;2023-02-01T18:17:47;3.90;99.90
6018;DHT22;3037;51.068;13.780;2023-02-01T18:20:21;3.80;99.90
6018;DHT22;3037;51.068;13.780;2023-02-01T18:22:48;3.80;99.90
6018;DHT22;3037;51.068;13.780;2023-02-01T18:25:19;3.80;99.90
6018;DHT22;3037;51.068;13.780;2023-02-01T18:27:47;3.90;99.90
6018;DHT22;3037;51.068;13.780;2023-02-01T18:30:13;3.80;99.90
6018;DHT22;3037;51.068;13.780;2023-02-01T18:32:40;3.90;99.90
6018;DHT22;3037;51.068;13.780;2023-02-01T18:35:24;3.90;99.90
6018;DHT22;3037;51.068;13.780;2023-02-01T18:37:51;4.00;99.90
6018;DHT22;3037;51.068;13.780;2023-02-01T18:40:23;4.10;99.90
6018;DHT22;3037;51.068;13.780;2023-02-01T18:42:49;4.00;99.90
6018;DHT22;3037;51.068;13.780;2023-02-01T18:45:25;4.10;99.90
6018;DHT22;3037;51.068;13.780;2023-02-01T18:47:52;4.20;99.90
6018;DHT22;3037;51.068;13.780;2023-02-01T18:50:19;4.20;99.90
6018;DHT22;3037;51.068;13.780;2023-02-01T18:52:45;4.20;99.90
6018;DHT22;3037;51.068;13.780;2023-02-01T18:55:11;4.10;99.90
6018;DHT22;3037;51.068;13.780;2023-02-01T18:57:37;4.10;99.90